createdAt,value
2018-09-18T00:00:30.080Z,74.82
2018-09-18T00:02:58.854Z,75.07
2018-09-18T00:05:27.624Z,74.86
2018-09-18T00:07:56.536Z,75.08
2018-09-18T00:10:25.255Z,75.11
2018-09-18T00:12:54.212Z,74.92
2018-09-18T00:15:23.104Z,75.13
2018-09-18T00:17:51.766Z,75.28
2018-09-18T00:20:20.478Z,75.35
2018-09-18T00:22:49.288Z,75.42
2018-09-18T00:25:17.950Z,75.58
2018-09-18T00:27:46.649Z,75.79
2018-09-18T00:30:15.300Z,75.70
2018-09-18T00:32:44.060Z,75.85
2018-09-18T00:35:12.743Z,76.42
2018-09-18T00:37:41.342Z,76.05
2018-09-18T00:40:10.099Z,76.28
2018-09-18T00:42:38.765Z,76.68
2018-09-18T00:46:10.940Z,76.58
2018-09-18T00:48:39.613Z,76.60
2018-09-18T00:51:08.550Z,76.30
2018-09-18T00:53:37.227Z,76.88
2018-09-18T00:56:06.138Z,76.41
2018-09-18T00:58:34.881Z,76.76
2018-09-18T01:01:03.880Z,76.79
2018-09-18T01:03:32.484Z,76.53
2018-09-18T01:06:01.394Z,76.04
2018-09-18T01:08:30.261Z,76.29
2018-09-18T01:10:58.949Z,76.27
2018-09-18T01:13:27.879Z,75.99
2018-09-18T01:15:56.626Z,76.13
2018-09-18T01:18:29.678Z,76.38
2018-09-18T01:20:58.533Z,75.88
2018-09-18T01:23:27.307Z,76.06
2018-09-18T01:25:55.959Z,76.42
2018-09-18T01:28:24.779Z,76.28
2018-09-18T01:30:53.552Z,76.51
2018-09-18T01:33:22.185Z,76.19
2018-09-18T01:35:51.143Z,76.33
2018-09-18T01:38:19.830Z,76.24
2018-09-18T01:40:48.508Z,76.17
2018-09-18T01:43:17.394Z,76.19
2018-09-18T01:45:46.280Z,76.41
2018-09-18T01:48:15.049Z,75.99
2018-09-18T01:50:44.168Z,76.31
2018-09-18T01:53:12.748Z,76.42
2018-09-18T01:55:41.606Z,76.07
2018-09-18T01:58:10.259Z,75.98
2018-09-18T02:00:38.987Z,76.51
2018-09-18T02:03:07.775Z,76.38
2018-09-18T02:05:36.424Z,76.33
2018-09-18T02:08:05.071Z,76.32
2018-09-18T02:10:33.902Z,76.40
2018-09-18T02:13:02.645Z,76.68
2018-09-18T02:15:31.479Z,76.44
2018-09-18T02:18:00.526Z,76.74
2018-09-18T02:20:29.255Z,76.56
2018-09-18T02:22:57.899Z,77.11
2018-09-18T02:25:26.745Z,77.20
2018-09-18T02:27:55.508Z,76.98
2018-09-18T02:30:24.403Z,77.17
2018-09-18T02:32:53.315Z,77.64
2018-09-18T02:35:21.999Z,77.75
2018-09-18T02:37:51.049Z,77.53
2018-09-18T02:40:19.831Z,77.31
2018-09-18T02:42:48.851Z,77.61
2018-09-18T02:45:17.555Z,77.92
2018-09-18T02:47:46.543Z,77.77
2018-09-18T02:50:15.449Z,78.09
2018-09-18T02:52:44.505Z,77.88
2018-09-18T02:55:13.190Z,77.88
2018-09-18T02:57:41.887Z,78.28
2018-09-18T03:00:11.128Z,77.98
2018-09-18T03:02:40.082Z,77.73
2018-09-18T03:05:08.860Z,77.88
2018-09-18T03:07:37.655Z,77.63
2018-09-18T03:10:06.947Z,77.54
2018-09-18T03:12:35.803Z,77.72
2018-09-18T03:16:07.467Z,77.79
2018-09-18T03:18:36.566Z,77.74
2018-09-18T03:21:05.687Z,77.72
2018-09-18T03:23:34.729Z,77.72
2018-09-18T03:26:03.447Z,78.14
2018-09-18T03:28:32.310Z,77.87
2018-09-18T03:31:01.262Z,78.22
2018-09-18T03:33:30.319Z,77.92
2018-09-18T03:35:59.265Z,77.76
2018-09-18T03:38:28.055Z,78.05
2018-09-18T03:40:56.679Z,77.75
2018-09-18T03:43:25.712Z,78.02
2018-09-18T03:45:54.511Z,77.62
2018-09-18T03:48:23.621Z,77.73
2018-09-18T03:50:52.186Z,77.88
2018-09-18T03:53:20.946Z,77.93
2018-09-18T03:55:49.813Z,77.61
2018-09-18T03:58:18.539Z,77.71
2018-09-18T04:00:47.206Z,77.39
2018-09-18T04:03:16.201Z,78.03
2018-09-18T04:05:45.076Z,78.30
2018-09-18T04:08:14.243Z,77.84
2018-09-18T04:10:43.264Z,78.29
2018-09-18T04:13:12.114Z,77.94
2018-09-18T04:15:41.631Z,78.17
2018-09-18T04:18:10.942Z,78.05
2018-09-18T04:20:39.638Z,78.11
2018-09-18T04:23:08.322Z,77.99
2018-09-18T04:25:37.081Z,77.90
2018-09-18T04:28:05.841Z,78.04
2018-09-18T04:30:34.534Z,78.22
2018-09-18T04:33:03.296Z,78.60
2018-09-18T04:35:32.120Z,78.44
2018-09-18T04:38:00.954Z,78.11
2018-09-18T04:40:29.792Z,77.87
2018-09-18T04:42:58.588Z,78.02
2018-09-18T04:45:27.314Z,78.28
2018-09-18T04:47:56.065Z,78.08
2018-09-18T04:50:24.820Z,77.52
2018-09-18T04:52:53.547Z,77.60
2018-09-18T04:55:22.380Z,77.26
2018-09-18T04:57:51.222Z,77.19
2018-09-18T05:00:19.913Z,77.12
2018-09-18T05:02:48.617Z,77.09
2018-09-18T05:05:17.551Z,77.17
2018-09-18T05:07:46.564Z,76.56
2018-09-18T05:10:15.579Z,76.58
2018-09-18T05:12:44.363Z,76.68
2018-09-18T05:15:13.265Z,76.42
2018-09-18T05:17:42.007Z,76.12
2018-09-18T05:20:10.815Z,75.40
2018-09-18T05:22:39.527Z,74.54
2018-09-18T05:25:08.651Z,71.16
2018-09-18T05:27:37.434Z,71.48
2018-09-18T05:30:06.585Z,72.43
2018-09-18T05:32:35.477Z,72.59
2018-09-18T05:35:04.290Z,72.13
2018-09-18T05:37:33.055Z,72.81
2018-09-18T05:40:01.805Z,73.26
2018-09-18T05:42:31.027Z,74.12
2018-09-18T05:44:59.791Z,74.57
2018-09-18T05:47:28.622Z,74.48
2018-09-18T05:49:57.368Z,74.19
2018-09-18T05:52:26.201Z,74.21
2018-09-18T05:54:54.810Z,74.39
2018-09-18T05:57:23.560Z,74.21
2018-09-18T05:59:52.327Z,74.05
2018-09-18T06:02:21.107Z,73.92
2018-09-18T06:04:49.868Z,73.83
2018-09-18T06:07:18.501Z,73.26
2018-09-18T06:09:47.569Z,73.32
2018-09-18T06:12:16.962Z,73.47
2018-09-18T06:14:45.596Z,72.75
2018-09-18T06:17:14.560Z,72.61
2018-09-18T06:19:43.415Z,71.14
2018-09-18T06:22:12.060Z,69.49
2018-09-18T06:24:40.695Z,68.73
2018-09-18T06:27:10.004Z,68.08
2018-09-18T06:29:38.822Z,66.98
2018-09-18T06:32:07.497Z,64.03
2018-09-18T06:34:36.151Z,63.84
2018-09-18T06:37:04.969Z,63.30
2018-09-18T06:39:33.681Z,63.94
2018-09-18T06:42:02.411Z,62.18
2018-09-18T06:44:31.058Z,62.12
2018-09-18T06:46:59.811Z,60.83
2018-09-18T06:49:28.549Z,59.77
2018-09-18T06:51:57.258Z,58.87
2018-09-18T06:54:26.325Z,59.05
2018-09-18T06:56:55.220Z,57.61
2018-09-18T06:59:24.065Z,57.70
2018-09-18T07:01:53.208Z,56.54
2018-09-18T07:04:22.091Z,57.48
2018-09-18T07:06:50.708Z,55.95
2018-09-18T07:09:19.394Z,54.98
2018-09-18T07:11:48.432Z,53.82
2018-09-18T07:14:17.573Z,54.85
2018-09-18T07:16:46.535Z,54.90
2018-09-18T07:19:15.886Z,54.19
2018-09-18T07:21:44.616Z,55.00
2018-09-18T07:24:13.602Z,53.88
2018-09-18T07:26:42.320Z,54.76
2018-09-18T07:29:11.618Z,55.10
2018-09-18T07:31:40.419Z,55.86
2018-09-18T07:34:09.406Z,54.94
2018-09-18T07:36:38.141Z,55.25
2018-09-18T07:39:09.860Z,55.11
2018-09-18T07:41:38.766Z,53.46
2018-09-18T07:44:07.393Z,53.50
2018-09-18T07:46:36.628Z,51.06
2018-09-18T07:49:05.986Z,51.17
2018-09-18T07:51:35.415Z,50.34
2018-09-18T07:54:04.119Z,49.98
2018-09-18T07:56:33.186Z,50.49
2018-09-18T07:59:02.807Z,51.67
2018-09-18T08:01:32.682Z,50.40
2018-09-18T08:04:01.406Z,49.70
2018-09-18T08:06:30.288Z,48.46
2018-09-18T08:08:59.154Z,48.55
2018-09-18T08:11:28.094Z,50.22
2018-09-18T08:13:56.742Z,49.73
2018-09-18T08:16:25.418Z,49.52
2018-09-18T08:18:54.319Z,50.02
2018-09-18T08:24:06.321Z,50.43
2018-09-18T08:26:35.176Z,48.60
2018-09-18T08:29:04.111Z,47.14
2018-09-18T08:31:33.169Z,45.25
2018-09-18T08:34:02.103Z,44.96
2018-09-18T08:36:31.380Z,45.40
2018-09-18T08:39:00.266Z,45.00
2018-09-18T08:41:29.177Z,46.67
2018-09-18T08:43:59.026Z,45.38
2018-09-18T08:46:27.769Z,44.56
2018-09-18T08:48:57.771Z,43.20
2018-09-18T08:51:27.085Z,44.86
2018-09-18T08:53:56.089Z,44.07
2018-09-18T08:56:24.954Z,43.52
2018-09-18T08:58:53.740Z,43.47
2018-09-18T09:01:22.602Z,43.96
2018-09-18T09:03:51.584Z,42.58
2018-09-18T09:06:20.673Z,40.69
2018-09-18T09:08:49.571Z,41.30
2018-09-18T09:11:18.255Z,41.62
2018-09-18T09:13:47.088Z,41.11
2018-09-18T09:16:16.323Z,41.97
2018-09-18T09:18:45.010Z,40.71
2018-09-18T09:21:14.070Z,40.40
2018-09-18T09:23:42.794Z,40.76
2018-09-18T09:26:11.382Z,40.95
2018-09-18T09:28:40.095Z,40.42
2018-09-18T09:31:08.864Z,41.12
2018-09-18T09:33:37.685Z,41.45
2018-09-18T09:36:06.962Z,41.77
2018-09-18T09:38:35.691Z,42.78
2018-09-18T09:41:04.480Z,42.15
2018-09-18T09:43:33.108Z,41.27
2018-09-18T09:46:01.944Z,39.91
2018-09-18T09:48:34.348Z,40.01
2018-09-18T09:51:04.563Z,41.65
2018-09-18T09:53:33.638Z,40.88
2018-09-18T09:56:02.458Z,39.57
2018-09-18T09:58:31.253Z,37.96
2018-09-18T10:01:05.119Z,38.66
2018-09-18T10:03:33.897Z,39.27
2018-09-18T10:06:02.814Z,38.11
2018-09-18T10:08:31.641Z,37.83
2018-09-18T10:11:00.384Z,36.73
2018-09-18T10:13:29.155Z,36.79
2018-09-18T10:15:58.091Z,38.19
2018-09-18T10:18:26.928Z,38.12
2018-09-18T10:20:56.005Z,37.72
2018-09-18T10:23:24.682Z,38.06
2018-09-18T10:25:53.565Z,37.50
2018-09-18T10:28:22.388Z,38.15
2018-09-18T10:30:51.114Z,37.53
2018-09-18T10:33:19.911Z,36.80
2018-09-18T10:35:48.766Z,38.66
2018-09-18T10:38:17.465Z,38.13
2018-09-18T10:40:46.694Z,38.85
2018-09-18T10:43:15.582Z,38.23
2018-09-18T10:45:44.390Z,37.39
2018-09-18T10:48:13.001Z,39.23
2018-09-18T10:50:41.973Z,37.58
2018-09-18T10:53:10.869Z,39.04
2018-09-18T10:55:39.793Z,38.63
2018-09-18T10:58:08.602Z,38.32
2018-09-18T11:00:37.544Z,38.16
2018-09-18T11:03:06.238Z,39.47
2018-09-18T11:05:34.966Z,38.39
2018-09-18T11:08:03.784Z,37.90
2018-09-18T11:10:32.614Z,38.36
2018-09-18T11:13:01.594Z,38.25
2018-09-18T11:15:30.626Z,38.47
2018-09-18T11:17:59.314Z,38.26
2018-09-18T11:20:28.062Z,36.93
2018-09-18T11:22:57.200Z,36.00
2018-09-18T11:25:26.092Z,37.66
2018-09-18T11:27:54.942Z,37.65
2018-09-18T11:30:23.636Z,38.08
2018-09-18T11:32:52.509Z,35.36
2018-09-18T11:35:21.086Z,37.23
2018-09-18T11:37:50.451Z,37.01
2018-09-18T11:40:19.299Z,37.08
2018-09-18T11:42:48.277Z,36.96
2018-09-18T11:45:17.132Z,36.19
2018-09-18T11:47:45.854Z,35.47
2018-09-18T11:50:14.704Z,38.20
2018-09-18T11:52:43.408Z,39.02
2018-09-18T11:55:12.120Z,38.99
2018-09-18T11:57:41.120Z,38.33
2018-09-18T12:00:09.967Z,38.20
2018-09-18T12:02:38.833Z,39.32
2018-09-18T12:05:07.564Z,38.95
2018-09-18T12:07:36.612Z,39.77
2018-09-18T12:10:05.423Z,40.39
2018-09-18T12:12:34.179Z,38.36
2018-09-18T12:15:02.881Z,39.25
2018-09-18T12:17:31.565Z,41.01
2018-09-18T12:20:00.464Z,40.93
2018-09-18T12:22:29.254Z,41.51
2018-09-18T12:24:58.133Z,41.49
2018-09-18T12:27:26.677Z,39.93
2018-09-18T12:29:56.292Z,41.14
2018-09-18T12:32:25.193Z,41.03
2018-09-18T12:34:55.185Z,40.70
2018-09-18T12:37:24.033Z,41.42
2018-09-18T12:39:52.946Z,40.98
2018-09-18T12:42:21.701Z,41.44
2018-09-18T12:44:50.495Z,40.34
2018-09-18T12:47:19.225Z,39.69
2018-09-18T12:49:48.087Z,40.10
2018-09-18T12:52:16.665Z,40.20
2018-09-18T12:54:45.486Z,39.03
2018-09-18T12:57:14.495Z,35.94
2018-09-18T12:59:43.223Z,37.07
2018-09-18T13:02:12.106Z,36.43
2018-09-18T13:04:40.921Z,35.95
2018-09-18T13:07:10.379Z,37.45
2018-09-18T13:09:39.264Z,37.32
2018-09-18T13:12:08.077Z,37.56
2018-09-18T13:14:36.848Z,37.92
2018-09-18T13:17:05.722Z,38.78
2018-09-18T13:19:34.642Z,38.85
2018-09-18T13:22:03.370Z,38.72
2018-09-18T13:24:32.155Z,38.60
2018-09-18T13:27:01.054Z,38.81
2018-09-18T13:29:29.919Z,38.75
2018-09-18T13:31:58.713Z,38.57
2018-09-18T13:34:27.366Z,38.81
2018-09-18T13:36:56.147Z,38.86
2018-09-18T13:39:24.850Z,38.67
2018-09-18T13:41:53.712Z,39.50
2018-09-18T13:44:22.943Z,39.43
2018-09-18T13:46:51.785Z,39.76
2018-09-18T13:49:20.570Z,39.78
2018-09-18T13:51:49.502Z,40.82
2018-09-18T13:54:18.727Z,41.89
2018-09-18T13:56:47.872Z,40.90
2018-09-18T13:59:16.816Z,41.66
2018-09-18T14:01:45.721Z,42.74
2018-09-18T14:04:14.317Z,44.58
2018-09-18T14:06:43.209Z,46.26
2018-09-18T14:09:12.859Z,46.27
2018-09-18T14:11:41.655Z,47.53
2018-09-18T14:14:10.462Z,47.66
2018-09-18T14:16:39.327Z,47.89
2018-09-18T14:19:08.038Z,47.96
2018-09-18T14:21:36.755Z,48.67
2018-09-18T14:24:05.889Z,49.36
2018-09-18T14:26:35.069Z,50.23
2018-09-18T14:29:03.858Z,51.26
2018-09-18T14:31:33.034Z,51.71
2018-09-18T14:34:01.951Z,52.70
2018-09-18T14:36:31.059Z,53.81
2018-09-18T14:38:59.806Z,54.66
2018-09-18T14:41:28.679Z,55.40
2018-09-18T14:43:57.644Z,55.03
2018-09-18T14:46:26.238Z,53.91
2018-09-18T14:49:58.405Z,55.78
2018-09-18T14:52:27.194Z,57.25
2018-09-18T14:54:55.976Z,56.29
2018-09-18T14:57:25.255Z,56.90
2018-09-18T14:59:54.164Z,56.15
2018-09-18T15:02:22.959Z,57.79
2018-09-18T15:04:51.881Z,58.19
2018-09-18T15:07:20.629Z,57.64
2018-09-18T15:09:49.406Z,58.46
2018-09-18T15:12:18.230Z,58.63
2018-09-18T15:14:47.386Z,59.09
2018-09-18T15:17:16.012Z,59.28
2018-09-18T15:19:44.989Z,59.12
2018-09-18T15:22:13.889Z,59.50
2018-09-18T15:24:42.785Z,59.30
2018-09-18T15:27:11.578Z,58.60
2018-09-18T15:29:40.432Z,59.04
2018-09-18T15:32:09.462Z,58.75
2018-09-18T15:34:38.099Z,59.33
2018-09-18T15:37:06.790Z,59.82
2018-09-18T15:39:35.661Z,59.38
2018-09-18T15:42:04.499Z,59.59
2018-09-18T15:44:33.203Z,61.17
2018-09-18T15:47:02.214Z,60.55
2018-09-18T15:49:31.197Z,59.88
2018-09-18T15:51:59.942Z,60.18
2018-09-18T15:54:28.750Z,61.49
2018-09-18T15:56:57.621Z,60.44
2018-09-18T15:59:26.355Z,60.80
2018-09-18T16:01:55.164Z,61.28
2018-09-18T16:04:23.852Z,60.61
2018-09-18T16:06:52.816Z,62.02
2018-09-18T16:09:21.865Z,61.22
2018-09-18T16:11:50.738Z,61.16
2018-09-18T16:14:19.616Z,61.20
2018-09-18T16:16:48.546Z,62.42
2018-09-18T16:19:17.682Z,61.71
2018-09-18T16:21:46.567Z,62.36
2018-09-18T16:24:15.393Z,62.91
2018-09-18T16:26:44.166Z,62.41
2018-09-18T16:29:13.084Z,62.71
2018-09-18T16:31:41.853Z,62.90
2018-09-18T16:34:10.951Z,62.69
2018-09-18T16:36:39.670Z,63.06
2018-09-18T16:39:08.624Z,62.70
2018-09-18T16:41:37.447Z,63.40
2018-09-18T16:44:06.158Z,63.73
2018-09-18T16:46:34.966Z,63.82
2018-09-18T16:49:04.754Z,64.35
2018-09-18T16:51:34.029Z,63.86
2018-09-18T16:54:02.994Z,64.10
2018-09-18T16:56:31.643Z,65.20
2018-09-18T16:59:00.483Z,64.78
2018-09-18T17:01:29.437Z,64.95
2018-09-18T17:03:58.621Z,65.33
2018-09-18T17:06:27.564Z,65.38
2018-09-18T17:08:56.254Z,65.15
2018-09-18T17:11:25.150Z,65.79
2018-09-18T17:13:53.812Z,66.12
2018-09-18T17:16:22.489Z,66.11
2018-09-18T17:18:51.338Z,66.31
2018-09-18T17:21:20.310Z,65.98
2018-09-18T17:23:49.156Z,66.02
2018-09-18T17:26:18.193Z,65.90
2018-09-18T17:28:47.101Z,65.78
2018-09-18T17:31:15.699Z,66.23
2018-09-18T17:33:44.558Z,66.91
2018-09-18T17:36:13.801Z,67.15
2018-09-18T17:38:42.576Z,67.16
2018-09-18T17:41:11.876Z,67.23
2018-09-18T17:43:40.824Z,67.50
2018-09-18T17:46:09.846Z,67.54
2018-09-18T17:48:38.507Z,67.72
2018-09-18T17:51:07.532Z,67.82
2018-09-18T17:53:36.404Z,68.15
2018-09-18T17:56:05.163Z,68.22
2018-09-18T17:58:33.922Z,68.35
2018-09-18T18:01:02.890Z,68.28
2018-09-18T18:03:31.631Z,68.35
2018-09-18T18:06:00.584Z,68.78
2018-09-18T18:08:29.582Z,68.81
2018-09-18T18:10:58.483Z,69.14
2018-09-18T18:13:27.203Z,69.38
2018-09-18T18:15:55.999Z,69.56
2018-09-18T18:18:24.914Z,69.39
2018-09-18T18:20:53.650Z,70.00
2018-09-18T18:23:22.718Z,70.18
2018-09-18T18:25:51.403Z,69.81
2018-09-18T18:28:20.877Z,70.11
2018-09-18T18:30:50.053Z,70.19
2018-09-18T18:33:19.428Z,70.42
2018-09-18T18:35:48.313Z,70.47
2018-09-18T18:38:17.243Z,70.97
2018-09-18T18:40:45.957Z,71.39
2018-09-18T18:43:15.031Z,71.57
2018-09-18T18:45:43.950Z,71.45
2018-09-18T18:48:13.268Z,71.68
2018-09-18T18:50:41.937Z,71.73
2018-09-18T18:53:10.763Z,71.46
2018-09-18T18:55:39.700Z,71.41
2018-09-18T18:58:08.541Z,71.50
2018-09-18T19:00:37.563Z,71.90
2018-09-18T19:03:06.540Z,72.20
2018-09-18T19:05:35.386Z,72.28
2018-09-18T19:08:04.939Z,72.50
2018-09-18T19:10:33.867Z,72.21
2018-09-18T19:13:02.687Z,72.21
2018-09-18T19:15:31.485Z,72.50
2018-09-18T19:18:00.193Z,72.57
2018-09-18T19:20:28.840Z,72.77
2018-09-18T19:22:57.877Z,72.91
2018-09-18T19:25:26.918Z,72.96
2018-09-18T19:27:55.894Z,72.98
2018-09-18T19:30:24.664Z,73.43
2018-09-18T19:32:53.530Z,73.30
2018-09-18T19:35:22.703Z,73.26
2018-09-18T19:37:51.890Z,73.43
2018-09-18T19:40:21.071Z,73.55
2018-09-18T19:42:49.916Z,73.79
2018-09-18T19:45:18.683Z,73.74
2018-09-18T19:47:48.050Z,74.15
2018-09-18T19:50:18.737Z,74.21
2018-09-18T19:52:48.993Z,73.98
2018-09-18T19:55:18.366Z,73.85
2018-09-18T19:57:47.320Z,73.82
2018-09-18T20:00:16.385Z,74.04
2018-09-18T20:02:45.060Z,74.45
2018-09-18T20:05:14.403Z,74.64
2018-09-18T20:07:43.471Z,74.96
2018-09-18T20:10:12.308Z,75.20
2018-09-18T20:12:41.396Z,75.19
2018-09-18T20:15:10.561Z,74.87
2018-09-18T20:17:39.524Z,76.19
2018-09-18T20:20:08.955Z,75.42
2018-09-18T20:22:37.703Z,75.42
2018-09-18T20:25:06.585Z,75.59
2018-09-18T20:27:37.256Z,75.54
2018-09-18T20:30:06.447Z,75.52
2018-09-18T20:32:35.629Z,75.35
2018-09-18T20:35:04.651Z,75.25
2018-09-18T20:37:33.526Z,75.28
2018-09-18T20:40:02.383Z,75.53
2018-09-18T20:42:31.221Z,75.53
2018-09-18T20:45:00.792Z,75.57
2018-09-18T20:47:29.785Z,75.65
2018-09-18T20:49:59.119Z,76.14
2018-09-18T20:52:28.022Z,76.34
2018-09-18T20:54:57.210Z,76.53
2018-09-18T20:57:26.179Z,76.68
2018-09-18T20:59:55.712Z,76.63
2018-09-18T21:02:24.995Z,77.13
2018-09-18T21:04:53.947Z,77.07
2018-09-18T21:07:22.918Z,77.00
2018-09-18T21:09:51.752Z,77.16
2018-09-18T21:12:21.226Z,77.48
2018-09-18T21:14:50.063Z,77.47
2018-09-18T21:17:18.794Z,77.36
2018-09-18T21:19:47.544Z,77.57
2018-09-18T21:22:16.386Z,77.47
2018-09-18T21:24:46.289Z,77.08
2018-09-18T21:27:15.589Z,77.78
2018-09-18T21:29:44.503Z,77.79
2018-09-18T21:32:13.533Z,77.87
2018-09-18T21:34:42.212Z,77.74
2018-09-18T21:37:11.710Z,77.75
2018-09-18T21:39:41.929Z,77.99
2018-09-18T21:42:11.497Z,77.87
2018-09-18T21:44:41.443Z,77.98
2018-09-18T21:47:10.244Z,78.25
2018-09-18T21:49:39.351Z,78.04
2018-09-18T21:52:08.462Z,78.16
2018-09-18T21:54:38.441Z,78.10
2018-09-18T21:57:07.475Z,78.34
2018-09-18T21:59:36.823Z,78.26
2018-09-18T22:02:05.590Z,78.16
2018-09-18T22:04:34.540Z,77.89
2018-09-18T22:07:04.040Z,78.27
2018-09-18T22:09:33.825Z,78.45
2018-09-18T22:12:03.725Z,78.54
2018-09-18T22:14:32.806Z,78.75
2018-09-18T22:17:02.549Z,78.73
2018-09-18T22:19:32.210Z,78.84
2018-09-18T22:22:01.777Z,78.59
2018-09-18T22:24:31.108Z,78.59
2018-09-18T22:27:00.357Z,78.93
2018-09-18T22:29:29.569Z,79.22
2018-09-18T22:31:58.700Z,78.94
2018-09-18T22:34:27.874Z,78.74
2018-09-18T22:36:57.278Z,78.68
2018-09-18T22:39:26.632Z,79.07
2018-09-18T22:41:55.984Z,78.98
2018-09-18T22:44:25.100Z,79.19
2018-09-18T22:46:53.818Z,79.10
2018-09-18T22:49:22.657Z,79.27
2018-09-18T22:51:51.849Z,79.37
2018-09-18T22:54:20.563Z,79.46
2018-09-18T22:56:49.645Z,79.09
2018-09-18T22:59:18.501Z,79.53
2018-09-18T23:01:47.125Z,79.90
2018-09-18T23:04:15.935Z,79.57
2018-09-18T23:06:44.733Z,79.59
2018-09-18T23:09:13.687Z,79.46
2018-09-18T23:11:42.415Z,79.51
2018-09-18T23:14:11.120Z,79.45
2018-09-18T23:16:40.379Z,79.44
2018-09-18T23:19:09.167Z,79.52
2018-09-18T23:21:37.988Z,79.24
2018-09-18T23:24:07.662Z,79.23
2018-09-18T23:26:36.537Z,78.81
2018-09-18T23:29:05.318Z,79.49
2018-09-18T23:31:34.128Z,79.57
2018-09-18T23:34:02.917Z,79.89
2018-09-18T23:36:31.601Z,79.34
2018-09-18T23:39:00.428Z,79.48
2018-09-18T23:41:29.384Z,79.54
2018-09-18T23:43:58.330Z,79.58
2018-09-18T23:46:27.298Z,79.88
2018-09-18T23:48:56.192Z,80.05
2018-09-18T23:51:25.118Z,79.83
2018-09-18T23:53:54.024Z,79.91
2018-09-18T23:56:22.720Z,79.87
2018-09-18T23:58:51.383Z,79.92
